createdAt,value
2023-01-29T00:01:56.628Z,-1.26
2023-01-29T00:04:24.116Z,-1.14
2023-01-29T00:06:50.901Z,-1.21
2023-01-29T00:09:18.980Z,-1.18
2023-01-29T00:11:45.752Z,-1.25
2023-01-29T00:14:12.631Z,-1.24
2023-01-29T00:16:39.496Z,-1.23
2023-01-29T00:19:06.318Z,-1.30
2023-01-29T00:21:33.572Z,-1.47
2023-01-29T00:24:00.406Z,-1.27
2023-01-29T00:26:27.795Z,-1.35
2023-01-29T00:28:55.090Z,-1.21
2023-01-29T00:31:24.442Z,-1.32
2023-01-29T00:33:51.477Z,-1.37
2023-01-29T00:36:20.304Z,-1.41
2023-01-29T00:38:55.071Z,-1.50
2023-01-29T00:41:38.229Z,-1.45
2023-01-29T00:44:25.992Z,-1.40
2023-01-29T00:46:53.259Z,-1.38
2023-01-29T00:49:20.183Z,-1.40
2023-01-29T00:52:09.363Z,-1.62
2023-01-29T00:57:04.338Z,-1.47
2023-01-29T00:59:31.608Z,-1.39
2023-01-29T01:02:17.644Z,-1.49
2023-01-29T01:04:44.361Z,-1.42
2023-01-29T01:09:56.683Z,-1.46
2023-01-29T01:12:23.400Z,-1.48
2023-01-29T01:14:50.643Z,-1.53
2023-01-29T01:17:18.028Z,-1.51
2023-01-29T01:19:45.033Z,-1.45
2023-01-29T01:22:12.262Z,-1.43
2023-01-29T01:24:39.407Z,-1.44
2023-01-29T01:27:06.538Z,-1.53
2023-01-29T01:29:33.254Z,-1.59
2023-01-29T01:32:00.554Z,-1.56
2023-01-29T01:34:28.000Z,-1.54
2023-01-29T01:36:58.486Z,-1.54
2023-01-29T01:39:25.462Z,-1.52
2023-01-29T01:41:53.854Z,-1.65
2023-01-29T01:44:38.323Z,-1.58
2023-01-29T01:47:05.424Z,-1.69
2023-01-29T01:49:32.394Z,-1.71
2023-01-29T01:52:01.207Z,-1.78
2023-01-29T01:54:32.412Z,-1.70
2023-01-29T01:57:09.897Z,-1.71
2023-01-29T01:59:38.323Z,-1.62
2023-01-29T02:02:25.999Z,-1.68
2023-01-29T02:05:12.481Z,-1.73
2023-01-29T02:08:04.417Z,-1.69
2023-01-29T02:10:38.316Z,-1.61
2023-01-29T02:13:07.559Z,-1.67
2023-01-29T02:15:34.322Z,-1.69
2023-01-29T02:18:01.202Z,-1.71
2023-01-29T02:20:32.110Z,-1.61
2023-01-29T02:23:17.776Z,-1.88
2023-01-29T02:25:56.298Z,-1.80
2023-01-29T02:28:37.335Z,-1.69
2023-01-29T02:31:14.588Z,-1.73
2023-01-29T02:33:56.180Z,-1.79
2023-01-29T02:36:38.416Z,-1.85
2023-01-29T02:39:15.746Z,-1.65
2023-01-29T02:42:07.483Z,-1.77
2023-01-29T02:44:37.615Z,-1.71
2023-01-29T02:47:19.893Z,-1.64
2023-01-29T02:50:08.091Z,-1.53
2023-01-29T02:52:37.349Z,-1.62
2023-01-29T02:55:18.539Z,-1.54
2023-01-29T02:57:49.480Z,-1.67
2023-01-29T03:00:20.178Z,-1.64
2023-01-29T03:02:58.649Z,-1.68
2023-01-29T03:05:38.449Z,-1.79
2023-01-29T03:08:10.475Z,-1.79
2023-01-29T03:10:38.468Z,-1.79
2023-01-29T03:13:15.221Z,-1.73
2023-01-29T03:15:51.448Z,-1.69
2023-01-29T03:18:22.705Z,-1.78
2023-01-29T03:20:58.567Z,-1.67
2023-01-29T03:23:38.317Z,-1.67
2023-01-29T03:26:24.971Z,-1.68
2023-01-29T03:29:11.071Z,-1.78
2023-01-29T03:31:56.482Z,-1.69
2023-01-29T03:34:34.949Z,-1.71
2023-01-29T03:37:01.571Z,-1.77
2023-01-29T03:39:29.961Z,-1.84
2023-01-29T03:41:59.911Z,-1.74
2023-01-29T03:44:29.250Z,-1.79
2023-01-29T03:46:59.386Z,-1.72
2023-01-29T03:49:38.341Z,-1.70
2023-01-29T03:52:17.135Z,-1.69
2023-01-29T03:55:02.235Z,-1.68
2023-01-29T04:00:32.091Z,-1.73
2023-01-29T04:03:22.336Z,-1.77
2023-01-29T04:06:01.908Z,-1.61
2023-01-29T04:08:32.860Z,-1.69
2023-01-29T04:11:05.562Z,-1.81
2023-01-29T04:13:34.018Z,-1.74
2023-01-29T04:16:02.270Z,-1.67
2023-01-29T04:18:32.633Z,-1.74
2023-01-29T04:21:01.512Z,-1.74
2023-01-29T04:23:28.377Z,-1.75
2023-01-29T04:26:06.977Z,-1.74
2023-01-29T04:28:38.619Z,-1.83
2023-01-29T04:31:12.778Z,-1.77
2023-01-29T04:34:04.413Z,-1.66
2023-01-29T04:36:38.428Z,-1.80
2023-01-29T04:39:38.375Z,-1.76
2023-01-29T04:42:30.567Z,-1.78
2023-01-29T04:45:21.477Z,-1.75
2023-01-29T04:48:20.363Z,-1.90
2023-01-29T04:50:59.562Z,-1.86
2023-01-29T04:53:33.524Z,-1.88
2023-01-29T04:56:29.740Z,-1.89
2023-01-29T04:59:03.228Z,-2.00
2023-01-29T05:01:33.303Z,-2.11
2023-01-29T05:04:05.385Z,-2.02
2023-01-29T05:06:32.912Z,-2.15
2023-01-29T05:09:01.790Z,-2.22
2023-01-29T05:11:31.005Z,-2.10
2023-01-29T05:13:58.842Z,-2.20
2023-01-29T05:16:38.776Z,-2.13
2023-01-29T05:19:05.506Z,-2.13
2023-01-29T05:21:33.040Z,-2.15
2023-01-29T05:24:14.355Z,-2.02
2023-01-29T05:27:02.426Z,-2.14
2023-01-29T05:29:29.375Z,-2.18
2023-01-29T05:31:56.336Z,-2.10
2023-01-29T05:34:23.150Z,-2.12
2023-01-29T05:36:50.348Z,-2.21
2023-01-29T05:39:17.472Z,-2.05
2023-01-29T05:41:44.294Z,-2.01
2023-01-29T05:44:11.825Z,-2.05
2023-01-29T05:46:39.583Z,-2.01
2023-01-29T05:49:06.615Z,-2.07
2023-01-29T05:51:33.586Z,-2.07
2023-01-29T05:54:07.560Z,-2.06
2023-01-29T05:56:34.324Z,-2.00
2023-01-29T05:59:01.101Z,-2.05
2023-01-29T06:01:27.845Z,-2.02
2023-01-29T06:03:54.557Z,-1.95
2023-01-29T06:06:21.448Z,-2.03
2023-01-29T06:08:48.525Z,-1.91
2023-01-29T06:11:16.839Z,-2.04
2023-01-29T06:13:43.796Z,-1.95
2023-01-29T06:16:12.833Z,-2.05
2023-01-29T06:18:40.542Z,-2.03
2023-01-29T06:21:12.541Z,-2.15
2023-01-29T06:23:40.018Z,-2.09
2023-01-29T06:26:12.315Z,-2.10
2023-01-29T06:28:39.114Z,-2.07
2023-01-29T06:31:37.386Z,-1.98
2023-01-29T06:33:53.830Z,-2.18
2023-01-29T06:36:24.356Z,-2.08
2023-01-29T06:38:51.034Z,-2.02
2023-01-29T06:41:19.857Z,-2.06
2023-01-29T06:43:47.961Z,-2.11
2023-01-29T06:46:14.730Z,-2.09
2023-01-29T06:48:41.707Z,-2.17
2023-01-29T06:51:09.856Z,-2.03
2023-01-29T06:53:38.877Z,-2.14
2023-01-29T06:56:06.725Z,-2.03
2023-01-29T06:58:33.678Z,-1.98
2023-01-29T07:01:19.716Z,-2.16
2023-01-29T07:03:54.914Z,-2.20
2023-01-29T07:06:22.563Z,-2.10
2023-01-29T07:08:49.270Z,-2.09
2023-01-29T07:11:16.148Z,-2.13
2023-01-29T07:13:43.025Z,-2.00
2023-01-29T07:16:10.010Z,-1.88
2023-01-29T07:21:07.271Z,-1.91
2023-01-29T07:23:35.526Z,-1.82
2023-01-29T07:26:06.807Z,-1.80
2023-01-29T07:28:38.518Z,-1.76
2023-01-29T07:31:06.391Z,-1.75
2023-01-29T07:33:33.729Z,-1.81
2023-01-29T07:36:07.292Z,-1.85
2023-01-29T07:38:34.007Z,-1.69
2023-01-29T07:41:03.965Z,-1.72
2023-01-29T07:43:31.170Z,-1.77
2023-01-29T07:46:03.367Z,-1.80
2023-01-29T07:48:30.448Z,-1.75
2023-01-29T07:50:57.414Z,-1.80
2023-01-29T07:53:24.748Z,-1.65
2023-01-29T07:55:51.673Z,-1.55
2023-01-29T07:58:18.449Z,-1.56
2023-01-29T08:00:45.869Z,-1.53
2023-01-29T08:03:16.508Z,-1.49
2023-01-29T08:05:44.390Z,-1.44
2023-01-29T08:08:14.659Z,-1.44
2023-01-29T08:10:42.008Z,-1.42
2023-01-29T08:13:09.003Z,-1.21
2023-01-29T08:18:04.800Z,-1.31
2023-01-29T08:20:34.866Z,-1.20
2023-01-29T08:23:07.981Z,-1.17
2023-01-29T08:25:35.851Z,-0.97
2023-01-29T08:28:03.531Z,-1.08
2023-01-29T08:30:32.935Z,-1.00
2023-01-29T08:32:59.804Z,-0.85
2023-01-29T08:35:27.321Z,-0.87
2023-01-29T08:37:59.849Z,-0.95
2023-01-29T08:40:35.240Z,-1.11
2023-01-29T08:43:08.705Z,-1.08
2023-01-29T08:45:38.508Z,-0.76
2023-01-29T08:48:07.963Z,-0.98
2023-01-29T08:50:35.226Z,-0.85
2023-01-29T08:53:04.541Z,-0.91
2023-01-29T08:55:31.272Z,-1.08
2023-01-29T08:57:57.957Z,-0.93
2023-01-29T09:00:24.941Z,-0.94
2023-01-29T09:02:51.749Z,-0.92
2023-01-29T09:05:18.882Z,-0.93
2023-01-29T09:07:45.831Z,-0.85
2023-01-29T09:10:13.574Z,-0.85
2023-01-29T09:12:40.396Z,-0.84
2023-01-29T09:15:07.679Z,-0.92
2023-01-29T09:17:34.557Z,-0.68
2023-01-29T09:20:01.357Z,-0.51
2023-01-29T09:22:28.466Z,-0.51
2023-01-29T09:24:55.113Z,-0.41
2023-01-29T09:27:21.777Z,-0.52
2023-01-29T09:29:48.407Z,-0.26
2023-01-29T09:32:16.837Z,-0.10
2023-01-29T09:34:46.373Z,0.09
2023-01-29T09:37:13.143Z,-0.28
2023-01-29T09:39:39.760Z,-0.31
2023-01-29T09:42:15.126Z,0.27
2023-01-29T09:45:12.848Z,0.25
2023-01-29T09:47:42.612Z,-0.01
2023-01-29T09:50:23.910Z,-0.27
2023-01-29T09:52:57.339Z,-0.17
2023-01-29T09:55:31.034Z,0.15
2023-01-29T09:58:01.035Z,-0.15
2023-01-29T10:00:34.998Z,-0.29
2023-01-29T10:03:20.572Z,-0.30
2023-01-29T10:05:51.616Z,-0.29
2023-01-29T10:08:37.573Z,0.00
2023-01-29T10:11:31.377Z,-0.35
2023-01-29T10:14:31.487Z,-0.43
2023-01-29T10:17:07.027Z,-0.50
2023-01-29T10:19:37.613Z,-0.51
2023-01-29T10:22:23.070Z,-0.40
2023-01-29T10:25:25.673Z,-0.42
2023-01-29T10:27:56.485Z,-0.04
2023-01-29T10:30:35.009Z,-0.08
2023-01-29T10:33:07.478Z,-0.13
2023-01-29T10:35:38.563Z,-0.10
2023-01-29T10:38:32.986Z,-0.32
2023-01-29T10:41:11.534Z,0.32
2023-01-29T10:43:51.479Z,0.55
2023-01-29T10:46:33.340Z,0.13
2023-01-29T10:49:18.525Z,0.47
2023-01-29T10:52:00.255Z,0.52
2023-01-29T10:54:38.707Z,0.90
2023-01-29T10:57:34.442Z,0.33
2023-01-29T11:00:13.481Z,0.73
2023-01-29T11:02:48.757Z,0.74
2023-01-29T11:05:38.638Z,1.15
2023-01-29T11:08:25.245Z,1.39
2023-01-29T11:11:10.230Z,0.91
2023-01-29T11:13:38.621Z,1.89
2023-01-29T11:16:06.417Z,2.12
2023-01-29T11:18:37.890Z,2.19
2023-01-29T11:21:05.180Z,2.51
2023-01-29T11:23:33.835Z,2.43
2023-01-29T11:26:01.519Z,2.29
2023-01-29T11:28:37.633Z,3.03
2023-01-29T11:31:15.708Z,3.44
2023-01-29T11:33:42.873Z,2.87
2023-01-29T11:36:38.817Z,3.53
2023-01-29T11:39:15.262Z,2.38
2023-01-29T11:42:03.405Z,2.19
2023-01-29T11:44:33.396Z,2.43
2023-01-29T11:47:11.521Z,2.36
2023-01-29T11:49:39.643Z,2.32
2023-01-29T11:52:11.553Z,2.30
2023-01-29T11:55:05.917Z,2.75
2023-01-29T12:00:13.050Z,2.18
2023-01-29T12:02:45.826Z,1.82
2023-01-29T12:05:24.336Z,1.63
2023-01-29T12:07:55.317Z,2.31
2023-01-29T12:10:38.762Z,2.40
2023-01-29T12:13:07.680Z,2.22
2023-01-29T12:15:34.446Z,2.12
2023-01-29T12:18:04.178Z,2.56
2023-01-29T12:20:38.564Z,3.43
2023-01-29T12:23:23.135Z,3.82
2023-01-29T12:26:08.689Z,3.94
2023-01-29T12:28:39.025Z,4.23
2023-01-29T12:31:20.785Z,4.49
2023-01-29T12:34:16.055Z,4.49
2023-01-29T12:36:53.326Z,4.27
2023-01-29T12:39:24.275Z,4.33
2023-01-29T12:42:05.363Z,4.09
2023-01-29T12:44:41.304Z,5.33
2023-01-29T12:47:17.157Z,5.61
2023-01-29T12:49:47.054Z,4.92
2023-01-29T12:52:21.831Z,3.97
2023-01-29T12:54:56.566Z,4.72
2023-01-29T12:57:38.761Z,4.93
2023-01-29T13:00:29.045Z,4.46
2023-01-29T13:03:00.147Z,5.72
2023-01-29T13:05:33.343Z,7.33
2023-01-29T13:08:14.681Z,7.55
2023-01-29T13:10:46.811Z,7.46
2023-01-29T13:13:30.674Z,8.22
2023-01-29T13:16:00.770Z,6.97
2023-01-29T13:18:38.924Z,6.79
2023-01-29T13:21:06.022Z,8.27
2023-01-29T13:23:38.971Z,7.55
2023-01-29T13:26:08.260Z,8.09
2023-01-29T13:28:35.158Z,7.58
2023-01-29T13:31:20.510Z,8.29
2023-01-29T13:34:20.575Z,8.18
2023-01-29T13:36:51.938Z,8.30
2023-01-29T13:39:30.295Z,9.26
2023-01-29T13:41:59.439Z,8.80
2023-01-29T13:47:07.915Z,9.07
2023-01-29T13:49:38.889Z,9.80
2023-01-29T13:52:27.431Z,9.28
2023-01-29T13:55:01.130Z,9.57
2023-01-29T13:57:38.768Z,9.12
2023-01-29T14:00:08.104Z,9.78
2023-01-29T14:02:34.933Z,9.12
2023-01-29T14:05:30.808Z,9.42
2023-01-29T14:08:24.099Z,8.38
2023-01-29T14:11:13.472Z,8.15
2023-01-29T14:13:42.092Z,9.81
2023-01-29T14:16:17.691Z,9.73
2023-01-29T14:19:07.928Z,9.13
2023-01-29T14:21:38.684Z,8.21
2023-01-29T14:24:17.123Z,7.58
2023-01-29T14:26:46.220Z,8.43
2023-01-29T14:29:14.491Z,7.08
2023-01-29T14:31:48.293Z,8.59
2023-01-29T14:34:26.970Z,7.45
2023-01-29T14:37:04.723Z,7.74
2023-01-29T14:39:38.735Z,6.64
2023-01-29T14:42:19.074Z,5.71
2023-01-29T14:44:48.602Z,5.89
2023-01-29T14:47:33.593Z,7.32
2023-01-29T14:50:06.745Z,8.29
2023-01-29T14:52:38.683Z,7.02
2023-01-29T14:58:04.913Z,7.13
2023-01-29T15:03:12.406Z,6.05
2023-01-29T15:05:40.487Z,5.15
2023-01-29T15:08:13.539Z,5.72
2023-01-29T15:10:45.526Z,4.04
2023-01-29T15:13:26.355Z,3.42
2023-01-29T15:15:58.130Z,2.38
2023-01-29T15:18:40.290Z,1.91
2023-01-29T15:21:13.820Z,1.59
2023-01-29T15:23:41.028Z,1.52
2023-01-29T15:26:19.861Z,1.28
2023-01-29T15:29:04.278Z,1.05
2023-01-29T15:31:32.429Z,1.05
2023-01-29T15:34:07.981Z,0.95
2023-01-29T15:39:10.444Z,0.77
2023-01-29T15:44:04.021Z,0.58
2023-01-29T15:46:38.701Z,0.58
2023-01-29T15:49:16.608Z,0.53
2023-01-29T15:51:43.803Z,0.41
2023-01-29T15:54:15.988Z,0.41
2023-01-29T15:56:52.643Z,0.28
2023-01-29T15:59:26.268Z,0.21
2023-01-29T16:01:54.306Z,0.18
2023-01-29T16:04:29.127Z,0.16
2023-01-29T16:06:58.196Z,-0.02
2023-01-29T16:09:28.657Z,-0.01
2023-01-29T16:11:58.929Z,-0.09
2023-01-29T16:14:26.917Z,-0.20
2023-01-29T16:16:54.142Z,-0.28
2023-01-29T16:19:23.531Z,-0.32
2023-01-29T16:22:02.065Z,-0.30
2023-01-29T16:24:31.417Z,-0.38
2023-01-29T16:27:01.235Z,-0.49
2023-01-29T16:29:33.198Z,-0.53
2023-01-29T16:32:02.835Z,-0.42
2023-01-29T16:34:35.268Z,-0.57
2023-01-29T16:37:05.344Z,-0.59
2023-01-29T16:39:39.006Z,-0.60
2023-01-29T16:42:20.367Z,-0.63
2023-01-29T16:44:50.404Z,-0.76
2023-01-29T16:47:39.224Z,-0.57
2023-01-29T16:50:43.382Z,-0.62
2023-01-29T16:53:23.658Z,-0.60
2023-01-29T16:55:52.817Z,-0.84
2023-01-29T16:58:23.191Z,-0.86
2023-01-29T17:00:56.239Z,-0.83
2023-01-29T17:03:30.338Z,-0.87
2023-01-29T17:06:08.542Z,-0.94
2023-01-29T17:08:35.556Z,-0.91
2023-01-29T17:11:03.300Z,-0.97
2023-01-29T17:13:37.836Z,-1.02
2023-01-29T17:16:29.441Z,-1.04
2023-01-29T17:18:56.640Z,-1.05
2023-01-29T17:21:24.335Z,-1.05
2023-01-29T17:23:52.282Z,-1.23
2023-01-29T17:26:20.476Z,-1.05
2023-01-29T17:28:53.274Z,-1.15
2023-01-29T17:31:20.556Z,-1.19
2023-01-29T17:33:48.241Z,-1.29
2023-01-29T17:36:17.453Z,-1.23
2023-01-29T17:38:44.857Z,-1.12
2023-01-29T17:41:24.071Z,-1.24
2023-01-29T17:43:50.835Z,-1.20
2023-01-29T17:46:18.429Z,-1.15
2023-01-29T17:48:48.061Z,-1.28
2023-01-29T17:51:17.245Z,-1.34
2023-01-29T17:53:46.595Z,-1.31
2023-01-29T17:56:21.541Z,-1.36
2023-01-29T17:58:48.257Z,-1.34
2023-01-29T18:01:15.316Z,-1.36
2023-01-29T18:03:42.040Z,-1.49
2023-01-29T18:06:09.871Z,-1.57
2023-01-29T18:08:38.781Z,-1.31
2023-01-29T18:11:05.865Z,-1.43
2023-01-29T18:13:35.536Z,-1.58
2023-01-29T18:16:02.624Z,-1.46
2023-01-29T18:18:29.520Z,-1.60
2023-01-29T18:20:56.319Z,-1.61
2023-01-29T18:23:23.286Z,-1.71
2023-01-29T18:25:50.014Z,-1.65
2023-01-29T18:28:18.185Z,-1.59
2023-01-29T18:30:48.084Z,-1.66
2023-01-29T18:33:16.353Z,-1.68
2023-01-29T18:35:48.398Z,-1.74
2023-01-29T18:38:18.880Z,-1.78
2023-01-29T18:40:45.658Z,-1.77
2023-01-29T18:43:14.857Z,-1.76
2023-01-29T18:45:41.652Z,-1.65
2023-01-29T18:48:09.429Z,-1.82
2023-01-29T18:53:04.590Z,-1.79
2023-01-29T18:55:31.499Z,-1.97
2023-01-29T18:58:26.285Z,-1.98
2023-01-29T19:00:47.897Z,-1.84
2023-01-29T19:03:14.788Z,-1.95
2023-01-29T19:05:41.757Z,-1.99
2023-01-29T19:08:08.554Z,-2.01
2023-01-29T19:10:35.582Z,-2.03
2023-01-29T19:13:02.416Z,-2.15
2023-01-29T19:15:29.444Z,-2.07
2023-01-29T19:17:57.013Z,-1.87
2023-01-29T19:20:23.818Z,-2.02
2023-01-29T19:22:51.551Z,-2.15
2023-01-29T19:25:19.784Z,-2.09
2023-01-29T19:27:49.938Z,-2.10
2023-01-29T19:30:20.046Z,-2.03
2023-01-29T19:32:49.461Z,-2.14
2023-01-29T19:35:16.603Z,-2.12
2023-01-29T19:37:44.315Z,-2.13
2023-01-29T19:40:11.662Z,-2.14
2023-01-29T19:42:38.547Z,-2.10
2023-01-29T19:45:11.916Z,-2.25
2023-01-29T19:47:45.124Z,-2.19
2023-01-29T19:50:12.509Z,-2.30
2023-01-29T19:52:50.608Z,-2.21
2023-01-29T19:55:19.309Z,-2.35
2023-01-29T19:57:47.090Z,-2.26
2023-01-29T20:00:15.943Z,-2.27
2023-01-29T20:02:42.733Z,-2.25
2023-01-29T20:05:12.475Z,-2.27
2023-01-29T20:07:50.089Z,-2.45
2023-01-29T20:10:18.065Z,-2.44
2023-01-29T20:12:46.273Z,-2.46
2023-01-29T20:15:14.552Z,-2.43
2023-01-29T20:17:42.031Z,-2.41
2023-01-29T20:20:09.828Z,-2.29
2023-01-29T20:25:03.344Z,-2.47
2023-01-29T20:27:30.159Z,-2.35
2023-01-29T20:29:57.592Z,-2.33
2023-01-29T20:32:24.627Z,-2.39
2023-01-29T20:34:53.875Z,-2.55
2023-01-29T20:37:20.746Z,-2.69
2023-01-29T20:39:47.664Z,-2.42
2023-01-29T20:42:14.640Z,-2.55
2023-01-29T20:44:42.150Z,-2.51
2023-01-29T20:47:09.997Z,-2.43
2023-01-29T20:52:04.255Z,-2.40
2023-01-29T20:54:33.526Z,-2.23
2023-01-29T20:57:00.397Z,-2.33
2023-01-29T20:59:29.329Z,-2.42
2023-01-29T21:01:56.182Z,-2.52
2023-01-29T21:04:23.100Z,-2.66
2023-01-29T21:06:49.830Z,-2.69
2023-01-29T21:09:16.656Z,-2.69
2023-01-29T21:11:45.254Z,-2.80
2023-01-29T21:14:13.997Z,-2.80
2023-01-29T21:16:41.004Z,-2.90
2023-01-29T21:19:07.822Z,-2.85
2023-01-29T21:21:34.846Z,-2.64
2023-01-29T21:24:04.759Z,-2.75
2023-01-29T21:26:31.948Z,-2.75
2023-01-29T21:29:01.534Z,-2.62
2023-01-29T21:31:28.300Z,-2.80
2023-01-29T21:33:56.162Z,-2.75
2023-01-29T21:36:25.219Z,-2.84
2023-01-29T21:38:52.089Z,-2.95
2023-01-29T21:41:39.012Z,-2.91
2023-01-29T21:44:05.837Z,-3.05
2023-01-29T21:46:32.765Z,-2.94
2023-01-29T21:49:02.392Z,-2.80
2023-01-29T21:51:29.229Z,-2.87
2023-01-29T21:53:56.348Z,-2.90
2023-01-29T21:56:23.195Z,-3.00
2023-01-29T21:58:50.210Z,-3.19
2023-01-29T22:01:36.532Z,-2.87
2023-01-29T22:04:04.722Z,-3.01
2023-01-29T22:06:31.443Z,-2.86
2023-01-29T22:08:58.236Z,-3.08
2023-01-29T22:11:25.047Z,-3.15
2023-01-29T22:13:51.786Z,-3.03
2023-01-29T22:16:18.584Z,-2.99
2023-01-29T22:18:45.288Z,-3.10
2023-01-29T22:21:12.088Z,-3.14
2023-01-29T22:23:39.564Z,-3.24
2023-01-29T22:26:07.477Z,-3.16
2023-01-29T22:31:05.193Z,-3.07
2023-01-29T22:33:33.367Z,-3.20
2023-01-29T22:36:00.764Z,-3.11
2023-01-29T22:38:27.776Z,-3.26
2023-01-29T22:40:55.957Z,-3.24
2023-01-29T22:43:24.761Z,-2.94
2023-01-29T22:45:51.990Z,-3.08
2023-01-29T22:48:19.265Z,-3.20
2023-01-29T22:50:53.934Z,-3.30
2023-01-29T22:53:24.312Z,-3.41
2023-01-29T22:55:56.012Z,-3.20
2023-01-29T22:58:26.231Z,-3.22
2023-01-29T23:00:53.158Z,-3.30
2023-01-29T23:03:20.096Z,-3.21
2023-01-29T23:05:46.969Z,-3.07
2023-01-29T23:08:13.978Z,-2.96
2023-01-29T23:10:40.748Z,-2.95
2023-01-29T23:13:07.538Z,-2.82
2023-01-29T23:15:34.358Z,-2.83
2023-01-29T23:18:01.146Z,-2.74
2023-01-29T23:20:27.917Z,-2.61
2023-01-29T23:22:54.906Z,-2.65
2023-01-29T23:25:38.901Z,-2.62
2023-01-29T23:28:05.638Z,-2.58
2023-01-29T23:30:32.343Z,-2.44
2023-01-29T23:32:59.208Z,-2.52
2023-01-29T23:35:28.873Z,-2.49
2023-01-29T23:37:56.229Z,-2.36
2023-01-29T23:40:23.229Z,-2.22
2023-01-29T23:42:53.169Z,-1.85
2023-01-29T23:45:23.536Z,-1.83
2023-01-29T23:47:50.449Z,-1.86
2023-01-29T23:50:17.730Z,-1.79
2023-01-29T23:52:44.603Z,-1.63
2023-01-29T23:55:11.267Z,-1.62
2023-01-29T23:57:38.917Z,-1.64
